logo
Search for airport 
image banner adimage banner adimage banner ad
image banner ad

FABRED - Bredasdorp City

Located in , South Africa

ICAO - , IATA -

Data provided by Airmate  

General information

Coordinates: S34°32'54" E20°5'6"
Elevation is 82 feet MSL.
 
View others Airports in Western Cape

Operational data

Special qualification required
Current time UTC:
Current local time:
Weather at : - ( 0 km )
METAR: ZMUB 241900Z VRB02MPS 9999 SCT030CB SCT033 17/09 Q1013 NOSIG RMK QFE652.7 59 NT
View NOTAMs / SUP AIP / TFR affecting this airport [VIEW]
Communications frequencies: [VIEW]

Runways:

RWY identifierQFULength (ft)Width (ft)SurfaceLDA (ft)
11143°410149SAND
29323°410149SAND
13113°295366SAND
31293°295366SAND
0856°262566SAND
26236°262566SAND

Airport contact information

Address: South Africa

Satellite view of FABRED